Othello — LXOD — position and weather

sailwx.info

Track history (hours):
 
Tides and Currents Weather Stations Pressure Air Temp Water Temp Dewpoint Dewpoint Depression Visibility Wind Speed Wind Dir Waves Ship Positions

Othello

Last reported at 2015-Mar-03 04:29 UTC. Time now 2015-Mar-03 04:48 UTC.
Position N 51°55' E 004°13'.

Length 104 m; draft 5.6 m.

Type: Ship. MMSI: 253279000.

Date/timePositionNaut miles runAvg speedWind from/ knotsBaromVisibWave heightAir tempDewpointWater temp
2015-Mar-03 04:29N 51°55' E 004°13'0 0.0
2015-Mar-03 03:32N 51°55' E 004°13'0 0.0
2015-Mar-03 02:32N 51°55' E 004°13'0 0.0
2015-Mar-03 01:26N 51°55' E 004°13'0 0.0
2015-Mar-03 00:33N 51°55' E 004°13'6 5.7
2015-Mar-02 23:33N 51°58' E 004°06'1010.1
2015-Mar-02 22:34N 51°59' E 003°50'4 4.0
2015-Mar-02 21:32N 51°56' E 003°47'0 0.0
2015-Mar-02 20:32N 51°56' E 003°46'0 0.0
2015-Mar-02 19:29N 51°56' E 003°46'0 0.0
2015-Mar-02 18:20N 51°56' E 003°47'0 0.1
2015-Mar-02 17:32N 51°56' E 003°47'0 0.2
2015-Mar-02 16:33N 51°56' E 003°46'8 8.0
2015-Mar-02 15:30N 51°57' E 003°33'9 9.7
2015-Mar-02 14:32N 51°54' E 003°18'32 9.5
2015-Mar-02 11:12N 51°41' E 002°31'913.1
2015-Mar-02 10:30N 51°34' E 002°21'1212.9
2015-Mar-02 09:33N 51°24' E 002°11'9 8.8
2015-Mar-02 08:32N 51°22' E 002°25'1111.2
2015-Mar-02 07:34N 51°23' E 002°42'1110.9
2015-Mar-02 06:33N 51°24' E 002°59'1212.4
2015-Mar-02 05:34N 51°24' E 003°19'1111.2
2015-Mar-02 04:33N 51°26' E 003°37'1211.7
2015-Mar-02 03:34N 51°22' E 003°54'9 9.1
2015-Mar-02 02:34N 51°23' E 004°09'9 8.8
2015-Mar-02 01:34N 51°16' E 004°19'6 5.8
2015-Mar-02 00:33N 51°11' E 004°20'4 4.2
2015-Mar-01 23:34N 51°07' E 004°18'2 1.5
2015-Mar-01 22:12N 51°05' E 004°21'0 0.0
2015-Mar-01 21:09N 51°05' E 004°21'0 0.0
2015-Mar-01 10:17N 51°05' E 004°21'0 0.0
2015-Mar-01 03:21N 51°05' E 004°21'0 0.0
2015-Mar-01 02:24N 51°05' E 004°21'0 0.0
2015-Mar-01 01:30N 51°05' E 004°21'0 0.0
2015-Feb-28 23:33N 51°05' E 004°21'0 0.0
2015-Feb-28 17:27N 51°05' E 004°21'0 0.0
2015-Feb-28 14:12N 51°05' E 004°21'0 0.0
2015-Feb-28 13:32N 51°05' E 004°21'2 2.0
2015-Feb-28 12:33N 51°06' E 004°18'2 1.8
2015-Feb-28 11:33N 51°08' E 004°19'7 6.6
2015-Feb-28 10:33N 51°15' E 004°20'8 7.7
2015-Feb-28 09:33N 51°21' E 004°14'8 8.0
2015-Feb-28 08:33N 51°24' E 004°02'10 9.6
2015-Feb-28 07:33N 51°21' E 003°47'10 9.8
2015-Feb-28 06:33N 51°25' E 003°33'1313.2
2015-Feb-28 05:33N 51°24' E 003°12'1313.3
2015-Feb-28 04:33N 51°22' E 002°51'10 9.5
2015-Feb-28 03:33N 51°20' E 002°36'2 1.9
2015-Feb-28 02:33N 51°20' E 002°33'0 0.1
2015-Feb-28 01:30N 51°20' E 002°33'0 0.1
2015-Feb-28 00:31N 51°20' E 002°33'0 0.0
2015-Feb-27 23:31N 51°20' E 002°33'5 5.7
2015-Feb-27 22:34N 51°20' E 002°24'1313.5
2015-Feb-27 21:34N 51°14' E 002°06'1010.4
2015-Feb-27 20:33N 51°08' E 001°51'1111.1
2015-Feb-27 19:33N 51°00' E 001°39'  
2015-Feb-24 07:12N 39°13' W 009°56'6 8.9
2015-Feb-24 06:33N 39°07' W 009°56'13 9.4
2015-Feb-24 05:09N 38°54' W 009°56'6 9.4
2015-Feb-24 04:33N 38°48' W 009°56'9 9.0
2015-Feb-24 03:33N 38°39' W 009°54'9 9.1
2015-Feb-24 02:33N 38°30' W 009°53'9 9.2
2015-Feb-24 01:33N 38°21' W 009°51'10 9.5
2015-Feb-24 00:30N 38°11' W 009°50'13 9.6
2015-Feb-23 23:07N 37°58' W 009°49'7 9.7
2015-Feb-23 22:23N 37°51' W 009°48'  
Track history (hours):
 
Tides and Currents Weather Stations Pressure Air Temp Water Temp Dewpoint Dewpoint Depression Visibility Wind Speed Wind Dir Waves Ship Positions

Othello

Last reported at 2015-Mar-03 04:29 UTC. Time now 2015-Mar-03 04:48 UTC.
Position N 51°55' E 004°13'.

Length 104 m; draft 5.6 m.

Type: Ship. MMSI: 253279000.

Date/timePositionNaut miles runAvg speedWind from/ knotsBaromVisibWave heightAir tempDewpointWater temp
2015-Mar-03 04:29N 51°55' E 004°13'0 0.0
2015-Mar-03 03:32N 51°55' E 004°13'0 0.0
2015-Mar-03 02:32N 51°55' E 004°13'0 0.0
2015-Mar-03 01:26N 51°55' E 004°13'0 0.0
2015-Mar-03 00:33N 51°55' E 004°13'6 5.7
2015-Mar-02 23:33N 51°58' E 004°06'1010.1
2015-Mar-02 22:34N 51°59' E 003°50'4 4.0
2015-Mar-02 21:32N 51°56' E 003°47'0 0.0
2015-Mar-02 20:32N 51°56' E 003°46'0 0.0
2015-Mar-02 19:29N 51°56' E 003°46'0 0.0
2015-Mar-02 18:20N 51°56' E 003°47'0 0.1
2015-Mar-02 17:32N 51°56' E 003°47'0 0.2
2015-Mar-02 16:33N 51°56' E 003°46'8 8.0
2015-Mar-02 15:30N 51°57' E 003°33'9 9.7
2015-Mar-02 14:32N 51°54' E 003°18'32 9.5
2015-Mar-02 11:12N 51°41' E 002°31'913.1
2015-Mar-02 10:30N 51°34' E 002°21'1212.9
2015-Mar-02 09:33N 51°24' E 002°11'9 8.8
2015-Mar-02 08:32N 51°22' E 002°25'1111.2
2015-Mar-02 07:34N 51°23' E 002°42'1110.9
2015-Mar-02 06:33N 51°24' E 002°59'1212.4
2015-Mar-02 05:34N 51°24' E 003°19'1111.2
2015-Mar-02 04:33N 51°26' E 003°37'1211.7
2015-Mar-02 03:34N 51°22' E 003°54'9 9.1
2015-Mar-02 02:34N 51°23' E 004°09'9 8.8
2015-Mar-02 01:34N 51°16' E 004°19'6 5.8
2015-Mar-02 00:33N 51°11' E 004°20'4 4.2
2015-Mar-01 23:34N 51°07' E 004°18'2 1.5
2015-Mar-01 22:12N 51°05' E 004°21'0 0.0
2015-Mar-01 21:09N 51°05' E 004°21'0 0.0
2015-Mar-01 10:17N 51°05' E 004°21'0 0.0
2015-Mar-01 03:21N 51°05' E 004°21'0 0.0
2015-Mar-01 02:24N 51°05' E 004°21'0 0.0
2015-Mar-01 01:30N 51°05' E 004°21'0 0.0
2015-Feb-28 23:33N 51°05' E 004°21'0 0.0
2015-Feb-28 17:27N 51°05' E 004°21'0 0.0
2015-Feb-28 14:12N 51°05' E 004°21'0 0.0
2015-Feb-28 13:32N 51°05' E 004°21'2 2.0
2015-Feb-28 12:33N 51°06' E 004°18'2 1.8
2015-Feb-28 11:33N 51°08' E 004°19'7 6.6
2015-Feb-28 10:33N 51°15' E 004°20'8 7.7
2015-Feb-28 09:33N 51°21' E 004°14'8 8.0
2015-Feb-28 08:33N 51°24' E 004°02'10 9.6
2015-Feb-28 07:33N 51°21' E 003°47'10 9.8
2015-Feb-28 06:33N 51°25' E 003°33'1313.2
2015-Feb-28 05:33N 51°24' E 003°12'1313.3
2015-Feb-28 04:33N 51°22' E 002°51'10 9.5
2015-Feb-28 03:33N 51°20' E 002°36'2 1.9
2015-Feb-28 02:33N 51°20' E 002°33'0 0.1
2015-Feb-28 01:30N 51°20' E 002°33'0 0.1
2015-Feb-28 00:31N 51°20' E 002°33'0 0.0
2015-Feb-27 23:31N 51°20' E 002°33'5 5.7
2015-Feb-27 22:34N 51°20' E 002°24'1313.5
2015-Feb-27 21:34N 51°14' E 002°06'1010.4
2015-Feb-27 20:33N 51°08' E 001°51'1111.1
2015-Feb-27 19:33N 51°00' E 001°39'  
2015-Feb-24 07:12N 39°13' W 009°56'6 8.9
2015-Feb-24 06:33N 39°07' W 009°56'13 9.4
2015-Feb-24 05:09N 38°54' W 009°56'6 9.4
2015-Feb-24 04:33N 38°48' W 009°56'9 9.0
2015-Feb-24 03:33N 38°39' W 009°54'9 9.1
2015-Feb-24 02:33N 38°30' W 009°53'9 9.2
2015-Feb-24 01:33N 38°21' W 009°51'10 9.5
2015-Feb-24 00:30N 38°11' W 009°50'13 9.6
2015-Feb-23 23:07N 37°58' W 009°49'7 9.7
2015-Feb-23 22:23N 37°51' W 009°48'  

Dump ship's entire track history